createdAt,value
2022-11-16T00:00:06.143Z,9.46
2022-11-16T00:01:04.031Z,9.42
2022-11-16T00:02:04.062Z,9.40
2022-11-16T00:03:04.129Z,9.50
2022-11-16T00:04:04.027Z,9.47
2022-11-16T00:05:04.019Z,9.33
2022-11-16T00:06:04.018Z,9.39
2022-11-16T00:07:04.075Z,9.42
2022-11-16T00:08:04.013Z,9.46
2022-11-16T00:09:04.016Z,9.39
2022-11-16T00:10:04.022Z,9.39
2022-11-16T00:11:04.012Z,9.38
2022-11-16T00:12:04.012Z,9.43
2022-11-16T00:13:04.003Z,9.56
2022-11-16T00:14:03.996Z,9.57
2022-11-16T00:15:03.990Z,9.47
2022-11-16T00:16:04.018Z,9.43
2022-11-16T00:17:03.988Z,9.31
2022-11-16T00:18:03.987Z,9.17
2022-11-16T00:19:03.984Z,9.18
2022-11-16T00:20:03.983Z,9.21
2022-11-16T00:21:03.976Z,9.10
2022-11-16T00:22:03.978Z,9.14
2022-11-16T00:23:03.978Z,9.18
2022-11-16T00:24:03.973Z,9.18
2022-11-16T00:25:03.968Z,9.20
2022-11-16T00:26:03.965Z,9.15
2022-11-16T00:27:03.963Z,9.15
2022-11-16T00:28:03.960Z,9.21
2022-11-16T00:29:03.951Z,9.21
2022-11-16T00:30:03.951Z,9.23
2022-11-16T00:31:03.954Z,9.20
2022-11-16T00:32:03.969Z,9.20
2022-11-16T00:33:03.942Z,9.26
2022-11-16T00:34:03.944Z,9.17
2022-11-16T00:35:03.939Z,9.17
2022-11-16T00:36:03.939Z,9.28
2022-11-16T00:37:03.934Z,9.35
2022-11-16T00:38:03.927Z,9.28
2022-11-16T00:39:03.928Z,9.36
2022-11-16T00:40:03.921Z,9.29
2022-11-16T00:41:03.918Z,9.23
2022-11-16T00:42:03.919Z,9.24
2022-11-16T00:43:03.915Z,9.11
2022-11-16T00:44:03.913Z,9.18
2022-11-16T00:45:03.912Z,9.20
2022-11-16T00:46:03.905Z,9.15
2022-11-16T00:47:03.901Z,9.08
2022-11-16T00:48:03.919Z,9.10
2022-11-16T00:49:03.897Z,9.10
2022-11-16T00:50:03.894Z,9.04
2022-11-16T00:51:03.888Z,9.01
2022-11-16T00:52:03.888Z,9.02
2022-11-16T00:53:03.885Z,9.23
2022-11-16T00:54:03.884Z,9.21
2022-11-16T00:55:03.892Z,9.13
2022-11-16T00:56:03.878Z,9.17
2022-11-16T00:57:03.872Z,8.98
2022-11-16T00:58:03.878Z,8.99
2022-11-16T00:59:03.864Z,8.91
2022-11-16T01:00:03.866Z,8.96
2022-11-16T01:01:03.935Z,8.89
2022-11-16T01:02:03.859Z,9.08
2022-11-16T01:03:03.853Z,8.99
2022-11-16T01:04:03.872Z,9.04
2022-11-16T01:05:03.849Z,9.05
2022-11-16T01:06:03.860Z,9.21
2022-11-16T01:07:03.900Z,9.15
2022-11-16T01:08:03.838Z,8.98
2022-11-16T01:09:03.837Z,9.01
2022-11-16T01:10:03.836Z,9.10
2022-11-16T01:11:03.835Z,9.20
2022-11-16T01:12:03.827Z,9.08
2022-11-16T01:13:03.825Z,9.01
2022-11-16T01:14:03.823Z,9.20
2022-11-16T01:15:03.821Z,9.14
2022-11-16T01:16:03.818Z,9.15
2022-11-16T01:17:03.812Z,9.17
2022-11-16T01:18:03.811Z,9.17
2022-11-16T01:19:03.828Z,9.21
2022-11-16T01:20:03.823Z,9.31
2022-11-16T01:21:03.799Z,9.20
2022-11-16T01:22:03.795Z,9.20
2022-11-16T01:23:03.793Z,9.15
2022-11-16T01:24:03.790Z,9.18
2022-11-16T01:25:03.790Z,9.31
2022-11-16T01:26:03.791Z,9.28
2022-11-16T01:27:03.783Z,9.13
2022-11-16T01:28:03.780Z,9.20
2022-11-16T01:29:03.782Z,9.40
2022-11-16T01:30:03.776Z,9.31
2022-11-16T01:31:03.771Z,9.24
2022-11-16T01:32:03.769Z,9.32
2022-11-16T01:33:03.763Z,9.18
2022-11-16T01:34:03.763Z,9.29
2022-11-16T01:35:03.758Z,9.38
2022-11-16T01:36:03.777Z,9.43
2022-11-16T01:37:03.751Z,9.46
2022-11-16T01:38:03.753Z,9.42
2022-11-16T01:39:03.745Z,9.31
2022-11-16T01:40:03.746Z,9.24
2022-11-16T01:41:03.744Z,9.38
2022-11-16T01:42:03.738Z,9.28
2022-11-16T01:43:03.732Z,9.50
2022-11-16T01:44:03.734Z,9.29
2022-11-16T01:45:03.735Z,9.39
2022-11-16T01:46:03.725Z,9.33
2022-11-16T01:47:03.727Z,9.43
2022-11-16T01:48:03.775Z,9.39
2022-11-16T01:49:04.041Z,9.38
2022-11-16T01:50:03.716Z,9.31
2022-11-16T01:51:03.712Z,9.35
2022-11-16T01:52:03.726Z,9.39
2022-11-16T01:53:03.702Z,9.39
2022-11-16T01:54:03.702Z,9.38
2022-11-16T01:55:03.696Z,9.56
2022-11-16T01:56:03.694Z,9.56
2022-11-16T01:57:03.691Z,9.35
2022-11-16T01:58:03.691Z,9.46
2022-11-16T01:59:03.685Z,9.39
2022-11-16T02:00:03.682Z,9.46
2022-11-16T02:01:03.738Z,9.54
2022-11-16T02:02:03.678Z,9.35
2022-11-16T02:03:03.677Z,9.38
2022-11-16T02:04:03.675Z,9.31
2022-11-16T02:05:03.667Z,9.08
2022-11-16T02:06:03.665Z,9.15
2022-11-16T02:07:03.701Z,9.18
2022-11-16T02:08:03.682Z,9.23
2022-11-16T02:09:03.659Z,9.18
2022-11-16T02:10:03.651Z,9.11
2022-11-16T02:11:03.650Z,9.08
2022-11-16T02:12:03.646Z,8.94
2022-11-16T02:13:03.643Z,9.04
2022-11-16T02:14:03.641Z,8.95
2022-11-16T02:15:03.635Z,9.02
2022-11-16T02:16:03.634Z,8.95
2022-11-16T02:17:03.629Z,9.10
2022-11-16T02:18:03.641Z,9.08
2022-11-16T02:19:03.624Z,8.89
2022-11-16T02:20:03.627Z,9.01
2022-11-16T02:21:03.617Z,8.98
2022-11-16T02:22:03.618Z,8.95
2022-11-16T02:23:03.614Z,9.02
2022-11-16T02:24:03.631Z,9.10
2022-11-16T02:25:03.604Z,9.11
2022-11-16T02:26:03.612Z,9.01
2022-11-16T02:27:03.601Z,9.18
2022-11-16T02:28:03.599Z,9.14
2022-11-16T02:29:03.591Z,9.01
2022-11-16T02:30:03.593Z,8.98
2022-11-16T02:31:03.587Z,8.89
2022-11-16T02:32:03.588Z,8.91
2022-11-16T02:33:03.584Z,8.83
2022-11-16T02:34:03.584Z,8.94
2022-11-16T02:35:03.573Z,9.08
2022-11-16T02:36:03.574Z,8.96
2022-11-16T02:37:03.569Z,8.98
2022-11-16T02:38:03.577Z,8.95
2022-11-16T02:39:03.572Z,8.87
2022-11-16T02:40:03.588Z,8.76
2022-11-16T02:41:03.586Z,8.80
2022-11-16T02:42:03.565Z,8.76
2022-11-16T02:43:03.552Z,8.84
2022-11-16T02:44:03.556Z,8.81
2022-11-16T02:45:03.558Z,8.87
2022-11-16T02:46:04.023Z,8.73
2022-11-16T02:47:03.545Z,8.77
2022-11-16T02:48:03.557Z,8.76
2022-11-16T02:49:03.556Z,8.70
2022-11-16T02:50:03.545Z,8.83
2022-11-16T02:51:03.593Z,8.80
2022-11-16T02:52:03.563Z,8.92
2022-11-16T02:53:03.540Z,8.84
2022-11-16T02:54:03.525Z,8.80
2022-11-16T02:55:03.521Z,8.83
2022-11-16T02:56:03.538Z,8.83
2022-11-16T02:57:03.506Z,8.84
2022-11-16T02:58:03.506Z,8.96
2022-11-16T02:59:03.509Z,8.89
2022-11-16T03:00:03.497Z,8.86
2022-11-16T03:01:03.550Z,8.81
2022-11-16T03:02:03.493Z,8.89
2022-11-16T03:03:03.487Z,8.71
2022-11-16T03:04:03.484Z,8.81
2022-11-16T03:05:03.482Z,8.87
2022-11-16T03:06:03.479Z,8.84
2022-11-16T03:07:03.570Z,8.92
2022-11-16T03:08:03.470Z,9.01
2022-11-16T03:09:03.472Z,8.87
2022-11-16T03:10:03.463Z,8.80
2022-11-16T03:11:03.469Z,8.81
2022-11-16T03:12:03.477Z,8.84
2022-11-16T03:13:03.466Z,8.76
2022-11-16T03:14:03.451Z,8.73
2022-11-16T03:15:03.450Z,8.94
2022-11-16T03:16:03.446Z,9.04
2022-11-16T03:17:03.443Z,9.17
2022-11-16T03:18:03.438Z,8.99
2022-11-16T03:19:03.438Z,9.02
2022-11-16T03:20:03.435Z,8.94
2022-11-16T03:21:03.435Z,9.08
2022-11-16T03:22:03.426Z,9.05
2022-11-16T03:23:03.427Z,9.13
2022-11-16T03:24:03.423Z,9.11
2022-11-16T03:25:03.416Z,9.13
2022-11-16T03:26:03.419Z,9.15
2022-11-16T03:27:03.413Z,9.23
2022-11-16T03:28:03.428Z,9.26
2022-11-16T03:29:03.405Z,9.15
2022-11-16T03:30:03.414Z,8.99
2022-11-16T03:31:03.406Z,9.11
2022-11-16T03:32:03.600Z,9.17
2022-11-16T03:33:03.396Z,9.08
2022-11-16T03:34:03.395Z,9.11
2022-11-16T03:35:03.407Z,9.01
2022-11-16T03:36:03.391Z,9.02
2022-11-16T03:37:03.391Z,8.91
2022-11-16T03:38:03.380Z,9.05
2022-11-16T03:39:03.379Z,8.99
2022-11-16T03:40:03.377Z,8.99
2022-11-16T03:41:03.377Z,8.92
2022-11-16T03:42:03.361Z,8.98
2022-11-16T03:43:03.367Z,9.10
2022-11-16T03:44:03.387Z,9.11
2022-11-16T03:45:03.354Z,9.11
2022-11-16T03:46:03.351Z,8.96
2022-11-16T03:47:03.357Z,9.04
2022-11-16T03:48:03.346Z,9.05
2022-11-16T03:49:03.343Z,9.08
2022-11-16T03:50:03.340Z,9.04
2022-11-16T03:51:03.338Z,9.18
2022-11-16T03:52:03.333Z,9.21
2022-11-16T03:53:03.328Z,9.21
2022-11-16T03:54:03.324Z,9.26
2022-11-16T03:55:03.322Z,9.35
2022-11-16T03:56:03.327Z,9.32
2022-11-16T03:57:03.317Z,9.26
2022-11-16T03:58:03.382Z,9.24
2022-11-16T03:59:03.309Z,9.23
2022-11-16T04:00:03.324Z,9.14
2022-11-16T04:01:03.377Z,9.20
2022-11-16T04:02:03.300Z,9.23
2022-11-16T04:03:03.296Z,9.31
2022-11-16T04:04:03.291Z,9.24
2022-11-16T04:05:03.302Z,9.35
2022-11-16T04:06:03.286Z,9.29
2022-11-16T04:07:03.370Z,9.33
2022-11-16T04:08:03.282Z,9.24
2022-11-16T04:09:03.284Z,9.26
2022-11-16T04:10:03.271Z,9.32
2022-11-16T04:11:03.275Z,9.20
2022-11-16T04:12:03.270Z,9.17
2022-11-16T04:13:03.271Z,9.20
2022-11-16T04:14:08.025Z,9.28
2022-11-16T04:15:03.281Z,9.15
2022-11-16T04:16:03.274Z,9.20
2022-11-16T04:17:03.250Z,9.18
2022-11-16T04:18:03.245Z,9.26
2022-11-16T04:19:03.246Z,9.33
2022-11-16T04:20:03.240Z,9.39
2022-11-16T04:21:03.238Z,9.39
2022-11-16T04:22:03.234Z,9.43
2022-11-16T04:23:03.234Z,9.36
2022-11-16T04:24:03.229Z,9.36
2022-11-16T04:25:03.227Z,9.48
2022-11-16T04:26:03.224Z,9.47
2022-11-16T04:27:03.222Z,9.48
2022-11-16T04:28:03.219Z,9.50
2022-11-16T04:29:03.217Z,9.42
2022-11-16T04:30:03.209Z,9.39
2022-11-16T04:31:03.207Z,9.42
2022-11-16T04:32:03.231Z,9.42
2022-11-16T04:33:03.212Z,9.38
2022-11-16T04:34:03.199Z,9.36
2022-11-16T04:35:03.226Z,9.40
2022-11-16T04:36:03.192Z,9.33
2022-11-16T04:37:03.191Z,9.39
2022-11-16T04:38:03.187Z,9.43
2022-11-16T04:39:03.184Z,9.35
2022-11-16T04:40:03.183Z,9.35
2022-11-16T04:41:03.178Z,9.32
2022-11-16T04:42:03.175Z,9.39
2022-11-16T04:43:03.176Z,9.31
2022-11-16T04:44:03.168Z,9.35
2022-11-16T04:45:03.163Z,9.26
2022-11-16T04:46:03.157Z,9.35
2022-11-16T04:47:03.158Z,9.46
2022-11-16T04:48:03.175Z,9.48
2022-11-16T04:49:03.159Z,9.51
2022-11-16T04:50:03.155Z,9.60
2022-11-16T04:51:03.146Z,9.48
2022-11-16T04:52:03.138Z,9.51
2022-11-16T04:53:03.141Z,9.54
2022-11-16T04:54:03.142Z,9.61
2022-11-16T04:55:03.150Z,9.48
2022-11-16T04:56:03.130Z,9.50
2022-11-16T04:57:03.127Z,9.51
2022-11-16T04:58:03.138Z,9.60
2022-11-16T04:59:03.120Z,9.48
2022-11-16T05:00:03.114Z,9.53
2022-11-16T05:01:03.190Z,9.50
2022-11-16T05:02:03.109Z,9.58
2022-11-16T05:03:03.114Z,9.56
2022-11-16T05:04:03.125Z,9.60
2022-11-16T05:05:03.104Z,9.47
2022-11-16T05:06:03.101Z,9.48
2022-11-16T05:07:03.164Z,9.72
2022-11-16T05:08:03.090Z,9.68
2022-11-16T05:09:03.093Z,9.50
2022-11-16T05:10:03.091Z,9.61
2022-11-16T05:11:03.083Z,9.61
2022-11-16T05:12:03.080Z,9.71
2022-11-16T05:13:03.079Z,9.61
2022-11-16T05:14:03.076Z,9.75
2022-11-16T05:15:03.074Z,9.66
2022-11-16T05:16:03.068Z,9.72
2022-11-16T05:17:03.068Z,9.74
2022-11-16T05:18:03.076Z,9.81
2022-11-16T05:19:03.060Z,9.76
2022-11-16T05:20:03.081Z,9.93
2022-11-16T05:21:03.056Z,9.79
2022-11-16T05:22:03.052Z,9.79
2022-11-16T05:23:03.053Z,9.91
2022-11-16T05:24:03.042Z,9.89
2022-11-16T05:25:03.046Z,10.01
2022-11-16T05:26:03.038Z,9.84
2022-11-16T05:27:03.033Z,9.93
2022-11-16T05:28:03.061Z,9.91
2022-11-16T05:29:03.034Z,9.87
2022-11-16T05:30:03.031Z,9.87
2022-11-16T05:31:03.025Z,9.76
2022-11-16T05:32:03.027Z,9.65
2022-11-16T05:33:03.019Z,9.65
2022-11-16T05:34:03.018Z,9.79
2022-11-16T05:35:03.013Z,9.84
2022-11-16T05:36:03.029Z,9.81
2022-11-16T05:37:03.010Z,9.79
2022-11-16T05:38:03.012Z,9.84
2022-11-16T05:39:03.000Z,9.93
2022-11-16T05:40:03.000Z,9.78
2022-11-16T05:41:02.996Z,9.90
2022-11-16T05:42:02.994Z,9.86
2022-11-16T05:43:03.001Z,9.74
2022-11-16T05:44:03.003Z,9.66
2022-11-16T05:45:03.005Z,9.78
2022-11-16T05:46:02.986Z,9.93
2022-11-16T05:47:02.979Z,9.81
2022-11-16T05:48:02.978Z,9.90
2022-11-16T05:49:02.972Z,9.91
2022-11-16T05:50:02.967Z,9.86
2022-11-16T05:51:02.967Z,9.87
2022-11-16T05:52:02.990Z,9.96
2022-11-16T05:53:02.960Z,9.90
2022-11-16T05:54:02.951Z,9.93
2022-11-16T05:55:02.953Z,10.02
2022-11-16T05:56:03.040Z,9.90
2022-11-16T05:57:02.947Z,9.89
2022-11-16T05:58:02.941Z,9.89
2022-11-16T05:59:02.967Z,9.91
2022-11-16T06:00:02.937Z,10.08
2022-11-16T06:01:02.933Z,9.97
2022-11-16T06:02:02.929Z,10.02
2022-11-16T06:03:03.059Z,9.94
2022-11-16T06:04:02.922Z,10.11
2022-11-16T06:05:02.956Z,10.01
2022-11-16T06:06:02.922Z,10.14
2022-11-16T06:07:03.004Z,9.97
2022-11-16T06:08:02.917Z,10.04
2022-11-16T06:09:02.913Z,9.99
2022-11-16T06:10:02.914Z,10.01
2022-11-16T06:11:02.905Z,10.04
2022-11-16T06:12:02.903Z,10.01
2022-11-16T06:13:02.900Z,10.11
2022-11-16T06:14:02.896Z,10.07
2022-11-16T06:15:02.892Z,10.14
2022-11-16T06:16:03.262Z,10.08
2022-11-16T06:17:02.886Z,10.04
2022-11-16T06:18:02.886Z,10.08
2022-11-16T06:19:02.889Z,10.18
2022-11-16T06:20:02.882Z,10.25
2022-11-16T06:21:02.879Z,10.12
2022-11-16T06:22:02.878Z,10.18
2022-11-16T06:23:02.870Z,10.20
2022-11-16T06:24:02.867Z,10.11
2022-11-16T06:25:02.864Z,10.32
2022-11-16T06:26:02.864Z,10.22
2022-11-16T06:27:02.864Z,10.22
2022-11-16T06:28:06.741Z,10.25
2022-11-16T06:29:02.852Z,10.22
2022-11-16T06:30:02.851Z,10.20
2022-11-16T06:31:02.848Z,10.23
2022-11-16T06:32:03.035Z,10.25
2022-11-16T06:33:02.844Z,10.23
2022-11-16T06:34:02.844Z,10.17
2022-11-16T06:35:02.839Z,10.12
2022-11-16T06:36:02.832Z,10.18
2022-11-16T06:37:02.833Z,10.18
2022-11-16T06:38:02.826Z,10.11
2022-11-16T06:39:02.831Z,10.20
2022-11-16T06:40:02.825Z,9.97
2022-11-16T06:41:02.830Z,10.01
2022-11-16T06:42:02.815Z,10.11
2022-11-16T06:43:02.816Z,10.11
2022-11-16T06:44:02.814Z,10.15
2022-11-16T06:45:02.808Z,10.23
2022-11-16T06:46:02.807Z,10.23
2022-11-16T06:47:02.806Z,10.32
2022-11-16T06:48:02.913Z,10.45
2022-11-16T06:49:02.798Z,10.29
2022-11-16T06:50:02.799Z,10.27
2022-11-16T06:51:02.797Z,10.26
2022-11-16T06:52:02.790Z,10.32
2022-11-16T06:53:02.786Z,10.27
2022-11-16T06:54:02.782Z,10.32
2022-11-16T06:55:02.779Z,10.20
2022-11-16T06:56:02.784Z,10.26
2022-11-16T06:57:02.774Z,10.17
2022-11-16T06:58:02.777Z,10.12
2022-11-16T06:59:02.772Z,10.18
2022-11-16T07:00:02.766Z,10.12
2022-11-16T07:01:02.764Z,10.07
2022-11-16T07:02:02.810Z,10.22
2022-11-16T07:03:02.758Z,10.07
2022-11-16T07:04:02.876Z,10.11
2022-11-16T07:05:03.922Z,10.15
2022-11-16T07:06:02.752Z,10.12
2022-11-16T07:07:02.808Z,10.14
2022-11-16T07:08:02.746Z,10.33
2022-11-16T07:09:02.744Z,10.25
2022-11-16T07:10:02.737Z,10.05
2022-11-16T07:11:04.284Z,10.09
2022-11-16T07:12:02.735Z,10.07
2022-11-16T07:13:02.731Z,10.09
2022-11-16T07:14:02.732Z,10.17
2022-11-16T07:15:02.728Z,10.26
2022-11-16T07:16:02.726Z,10.29
2022-11-16T07:17:08.061Z,10.36
2022-11-16T07:18:02.727Z,10.23
2022-11-16T07:19:02.723Z,10.12
2022-11-16T07:20:02.738Z,10.26
2022-11-16T07:21:02.712Z,10.33
2022-11-16T07:22:02.714Z,10.38
2022-11-16T07:23:02.704Z,10.32
2022-11-16T07:24:02.707Z,10.30
2022-11-16T07:25:02.697Z,10.47
2022-11-16T07:26:02.697Z,10.42
2022-11-16T07:27:02.698Z,10.33
2022-11-16T07:28:02.690Z,10.44
2022-11-16T07:29:02.689Z,10.41
2022-11-16T07:30:02.689Z,10.41
2022-11-16T07:31:02.685Z,10.40
2022-11-16T07:32:02.677Z,10.45
2022-11-16T07:33:02.690Z,10.51
2022-11-16T07:34:02.673Z,10.45
2022-11-16T07:35:02.674Z,10.41
2022-11-16T07:36:02.900Z,10.33
2022-11-16T07:37:02.671Z,10.11
2022-11-16T07:38:02.671Z,10.14
2022-11-16T07:39:02.658Z,10.32
2022-11-16T07:40:02.659Z,10.23
2022-11-16T07:41:02.657Z,10.27
2022-11-16T07:42:02.651Z,10.30
2022-11-16T07:43:02.646Z,10.45
2022-11-16T07:44:02.651Z,10.44
2022-11-16T07:45:02.645Z,10.33
2022-11-16T07:46:30.206Z,10.32
2022-11-16T07:47:02.636Z,10.27
2022-11-16T07:48:02.652Z,10.27
2022-11-16T07:49:05.874Z,10.32
2022-11-16T07:50:02.640Z,10.27
2022-11-16T07:51:02.631Z,10.32
2022-11-16T07:52:02.740Z,10.32
2022-11-16T07:53:02.622Z,10.33
2022-11-16T07:54:02.625Z,10.23
2022-11-16T07:55:02.621Z,10.26
2022-11-16T07:56:02.616Z,10.38
2022-11-16T07:57:02.614Z,10.41
2022-11-16T07:58:02.609Z,10.22
2022-11-16T07:59:02.603Z,10.23
2022-11-16T08:00:02.609Z,10.36
2022-11-16T08:01:02.604Z,10.12
2022-11-16T08:02:02.650Z,10.14
2022-11-16T08:03:02.595Z,10.12
2022-11-16T08:04:02.595Z,10.17
2022-11-16T08:05:02.589Z,10.27
2022-11-16T08:06:02.589Z,10.27
2022-11-16T08:07:02.654Z,10.18
2022-11-16T08:08:02.707Z,10.42
2022-11-16T08:09:02.583Z,10.36
2022-11-16T08:10:02.657Z,10.42
2022-11-16T08:11:02.574Z,10.32
2022-11-16T08:12:02.568Z,10.27
2022-11-16T08:13:02.569Z,10.45
2022-11-16T08:14:02.567Z,10.22
2022-11-16T08:15:02.564Z,10.32
2022-11-16T08:16:02.560Z,10.32
2022-11-16T08:17:02.561Z,10.41
2022-11-16T08:18:02.557Z,10.11
2022-11-16T08:19:02.553Z,10.15
2022-11-16T08:20:02.553Z,10.29
2022-11-16T08:21:02.548Z,10.14
2022-11-16T08:22:02.546Z,10.08
2022-11-16T08:23:02.541Z,10.17
2022-11-16T08:24:02.657Z,10.30
2022-11-16T08:25:02.534Z,10.33
2022-11-16T08:26:02.540Z,10.25
2022-11-16T08:27:02.533Z,10.29
2022-11-16T08:28:02.531Z,10.15
2022-11-16T08:29:02.558Z,10.29
2022-11-16T08:30:02.524Z,10.26
2022-11-16T08:31:02.519Z,10.07
2022-11-16T08:32:02.517Z,10.15
2022-11-16T08:33:02.517Z,10.18
2022-11-16T08:34:02.514Z,10.18
2022-11-16T08:35:02.512Z,10.25
2022-11-16T08:36:02.507Z,10.15
2022-11-16T08:37:02.513Z,10.12
2022-11-16T08:38:02.506Z,10.20
2022-11-16T08:39:02.502Z,10.18
2022-11-16T08:40:02.519Z,10.25
2022-11-16T08:41:02.815Z,10.23
2022-11-16T08:42:02.499Z,10.22
2022-11-16T08:43:02.814Z,10.09
2022-11-16T08:44:02.482Z,10.05
2022-11-16T08:45:02.517Z,10.07
2022-11-16T08:46:02.483Z,10.09
2022-11-16T08:47:02.481Z,10.05
2022-11-16T08:48:04.316Z,10.18
2022-11-16T08:49:02.778Z,10.22
2022-11-16T08:50:02.470Z,10.23
2022-11-16T08:51:17.038Z,10.18
2022-11-16T08:52:02.466Z,10.12
2022-11-16T08:53:02.458Z,10.14
2022-11-16T08:54:02.468Z,10.20
2022-11-16T08:55:02.462Z,10.25
2022-11-16T08:56:02.480Z,10.14
2022-11-16T08:57:02.457Z,10.12
2022-11-16T08:58:02.458Z,10.23
2022-11-16T08:59:02.445Z,10.38
2022-11-16T09:00:02.444Z,10.32
2022-11-16T09:01:02.438Z,10.30
2022-11-16T09:02:02.538Z,10.34
2022-11-16T09:03:02.433Z,10.32
2022-11-16T09:04:02.427Z,10.36
2022-11-16T09:05:02.428Z,10.45
2022-11-16T09:06:02.424Z,10.40
2022-11-16T09:07:02.632Z,10.27
2022-11-16T09:08:02.420Z,10.30
2022-11-16T09:09:02.411Z,10.42
2022-11-16T09:10:02.421Z,10.41
2022-11-16T09:11:02.417Z,10.42
2022-11-16T09:12:02.520Z,10.41
2022-11-16T09:13:02.405Z,10.45
2022-11-16T09:14:02.402Z,10.38
2022-11-16T09:15:02.396Z,10.29
2022-11-16T09:16:02.395Z,10.33
2022-11-16T09:17:02.390Z,10.34
2022-11-16T09:18:02.396Z,10.26
2022-11-16T09:19:02.387Z,10.32
2022-11-16T09:20:02.446Z,10.32
2022-11-16T09:21:02.384Z,10.20
2022-11-16T09:22:02.379Z,10.18
2022-11-16T09:23:02.376Z,10.11
2022-11-16T09:24:02.391Z,10.08
2022-11-16T09:25:02.372Z,10.14
2022-11-16T09:26:02.375Z,10.05
2022-11-16T09:27:02.377Z,10.14
2022-11-16T09:28:02.485Z,10.15
2022-11-16T09:29:02.366Z,10.17
2022-11-16T09:30:02.360Z,10.15
2022-11-16T09:31:02.357Z,10.33
2022-11-16T09:32:02.358Z,10.29
2022-11-16T09:33:02.349Z,10.29
2022-11-16T09:34:02.346Z,10.23
2022-11-16T09:35:02.342Z,10.05
2022-11-16T09:36:02.349Z,10.09
2022-11-16T09:37:02.337Z,10.05
2022-11-16T09:38:02.334Z,10.07
2022-11-16T09:39:32.199Z,9.93
2022-11-16T09:40:02.334Z,9.93
2022-11-16T09:41:02.325Z,10.07
2022-11-16T09:42:02.329Z,10.05
2022-11-16T09:43:02.328Z,10.07
2022-11-16T09:44:02.432Z,10.08
2022-11-16T09:45:02.317Z,10.12
2022-11-16T09:46:02.316Z,10.02
2022-11-16T09:47:02.312Z,10.09
2022-11-16T09:48:02.307Z,10.12
2022-11-16T09:49:02.309Z,10.07
2022-11-16T09:50:03.788Z,10.02
2022-11-16T09:51:02.310Z,10.01
2022-11-16T09:52:02.300Z,10.01
2022-11-16T09:53:02.290Z,10.02
2022-11-16T09:54:02.291Z,10.04
2022-11-16T09:55:02.289Z,10.05
2022-11-16T09:56:02.285Z,10.07
2022-11-16T09:57:02.284Z,9.93
2022-11-16T09:58:02.280Z,10.08
2022-11-16T09:59:02.280Z,9.93
2022-11-16T10:00:02.391Z,9.99
2022-11-16T10:01:02.356Z,10.11
2022-11-16T10:02:02.270Z,10.04
2022-11-16T10:03:02.271Z,10.02
2022-11-16T10:04:02.264Z,9.84
2022-11-16T10:05:02.278Z,10.01
2022-11-16T10:06:02.261Z,9.94
2022-11-16T10:07:02.323Z,9.84
2022-11-16T10:08:02.250Z,9.93
2022-11-16T10:09:02.258Z,9.86
2022-11-16T10:10:02.244Z,9.91
2022-11-16T10:11:02.244Z,10.04
2022-11-16T10:12:02.239Z,9.89
2022-11-16T10:13:02.236Z,9.81
2022-11-16T10:14:04.435Z,9.84
2022-11-16T10:15:02.230Z,9.78
2022-11-16T10:16:02.384Z,9.74
2022-11-16T10:17:02.224Z,9.81
2022-11-16T10:18:02.226Z,9.93
2022-11-16T10:19:02.221Z,9.94
2022-11-16T10:20:02.216Z,9.96
2022-11-16T10:21:02.221Z,9.96
2022-11-16T10:22:02.214Z,9.84
2022-11-16T10:23:02.212Z,9.87
2022-11-16T10:24:02.203Z,9.90
2022-11-16T10:25:02.200Z,10.02
2022-11-16T10:26:02.198Z,10.08
2022-11-16T10:27:02.226Z,10.07
2022-11-16T10:28:02.191Z,9.86
2022-11-16T10:29:02.191Z,9.87
2022-11-16T10:30:02.196Z,10.01
2022-11-16T10:31:02.180Z,10.08
2022-11-16T10:32:02.290Z,10.05
2022-11-16T10:33:04.507Z,10.08
2022-11-16T10:34:02.185Z,10.08
2022-11-16T10:35:02.174Z,10.04
2022-11-16T10:36:02.176Z,9.97
2022-11-16T10:37:02.167Z,9.91
2022-11-16T10:38:02.169Z,10.11
2022-11-16T10:39:02.160Z,10.11
2022-11-16T10:40:02.156Z,9.83
2022-11-16T10:41:02.161Z,9.90
2022-11-16T10:42:07.280Z,9.89
2022-11-16T10:43:02.148Z,10.04
2022-11-16T10:44:02.147Z,9.99
2022-11-16T10:45:02.138Z,10.15
2022-11-16T10:46:02.138Z,10.02
2022-11-16T10:47:02.137Z,9.93
2022-11-16T10:48:02.157Z,10.08
2022-11-16T10:49:02.142Z,10.22
2022-11-16T10:50:02.127Z,10.09
2022-11-16T10:51:02.142Z,9.94
2022-11-16T10:52:02.123Z,9.84
2022-11-16T10:53:02.120Z,9.86
2022-11-16T10:54:02.121Z,9.87
2022-11-16T10:55:02.112Z,10.12
2022-11-16T10:56:02.111Z,10.08
2022-11-16T10:57:02.105Z,9.96
2022-11-16T10:58:02.107Z,9.86
2022-11-16T10:59:02.101Z,10.07
2022-11-16T11:00:02.098Z,10.11
2022-11-16T11:01:02.146Z,9.89
2022-11-16T11:02:02.095Z,10.02
2022-11-16T11:03:02.095Z,10.09
2022-11-16T11:04:02.202Z,10.09
2022-11-16T11:05:02.083Z,10.22
2022-11-16T11:06:02.085Z,10.23
2022-11-16T11:07:02.133Z,10.22
2022-11-16T11:08:02.084Z,10.27
2022-11-16T11:09:02.086Z,10.12
2022-11-16T11:10:02.069Z,10.17
2022-11-16T11:11:02.070Z,10.20
2022-11-16T11:12:02.064Z,10.15
2022-11-16T11:13:02.058Z,10.12
2022-11-16T11:14:02.066Z,10.15
2022-11-16T11:15:02.067Z,10.15
2022-11-16T11:16:02.061Z,10.04
2022-11-16T11:17:02.055Z,10.08
2022-11-16T11:18:02.048Z,10.14
2022-11-16T11:19:02.044Z,10.18
2022-11-16T11:20:02.064Z,10.23
2022-11-16T11:21:02.038Z,10.22
2022-11-16T11:22:02.035Z,10.27
2022-11-16T11:23:02.031Z,10.26
2022-11-16T11:24:29.303Z,10.40
2022-11-16T11:25:02.027Z,10.44
2022-11-16T11:26:02.019Z,10.40
2022-11-16T11:27:02.020Z,10.53
2022-11-16T11:28:02.013Z,10.40
2022-11-16T11:29:02.016Z,10.34
2022-11-16T11:30:02.028Z,10.40
2022-11-16T11:31:02.011Z,10.44
2022-11-16T11:32:02.010Z,10.20
2022-11-16T11:33:02.001Z,10.27
2022-11-16T11:34:02.004Z,10.27
2022-11-16T11:35:01.999Z,10.42
2022-11-16T11:36:02.108Z,10.29
2022-11-16T11:37:01.999Z,10.30
2022-11-16T11:38:07.435Z,10.34
2022-11-16T11:39:02.025Z,10.41
2022-11-16T11:40:01.981Z,10.44
2022-11-16T11:41:01.981Z,10.30
2022-11-16T11:42:01.981Z,10.30
2022-11-16T11:43:01.979Z,10.34
2022-11-16T11:44:01.968Z,10.30
2022-11-16T11:45:01.971Z,10.22
2022-11-16T11:46:01.968Z,10.17
2022-11-16T11:48:01.959Z,10.02
2022-11-16T11:49:01.959Z,10.14
2022-11-16T11:50:01.955Z,10.26
2022-11-16T11:51:01.963Z,10.29
2022-11-16T11:52:02.070Z,10.27
2022-11-16T11:53:01.954Z,10.12
2022-11-16T11:54:01.947Z,10.36
2022-11-16T11:55:01.946Z,10.25
2022-11-16T11:56:01.940Z,10.29
2022-11-16T11:57:01.936Z,10.32
2022-11-16T11:58:01.943Z,10.30
2022-11-16T11:59:01.928Z,10.17
2022-11-16T12:00:01.926Z,10.23
2022-11-16T12:01:01.927Z,10.32
2022-11-16T12:02:01.919Z,10.44
2022-11-16T12:03:01.957Z,10.45
2022-11-16T12:04:01.914Z,10.44
2022-11-16T12:05:01.915Z,10.47
2022-11-16T12:06:01.908Z,10.42
2022-11-16T12:07:01.970Z,10.38
2022-11-16T12:08:02.018Z,10.29
2022-11-16T12:09:01.905Z,10.41
2022-11-16T12:10:01.901Z,10.67
2022-11-16T12:11:01.908Z,10.61
2022-11-16T12:12:01.904Z,10.55
2022-11-16T12:13:01.889Z,10.42
2022-11-16T12:14:01.893Z,10.48
2022-11-16T12:15:01.884Z,10.55
2022-11-16T12:16:01.883Z,10.44
2022-11-16T12:17:01.876Z,10.52
2022-11-16T12:18:01.878Z,10.45
2022-11-16T12:19:01.877Z,10.44
2022-11-16T12:20:01.871Z,10.51
2022-11-16T12:21:01.867Z,10.51
2022-11-16T12:22:01.860Z,10.48
2022-11-16T12:23:04.219Z,10.52
2022-11-16T12:24:01.969Z,10.63
2022-11-16T12:25:01.856Z,10.66
2022-11-16T12:26:01.850Z,10.64
2022-11-16T12:27:01.854Z,10.64
2022-11-16T12:28:01.851Z,10.52
2022-11-16T12:29:01.853Z,10.52
2022-11-16T12:30:01.841Z,10.61
2022-11-16T12:31:01.842Z,10.59
2022-11-16T12:32:01.837Z,10.59
2022-11-16T12:33:01.830Z,10.64
2022-11-16T12:34:01.829Z,10.56
2022-11-16T12:35:01.828Z,10.61
2022-11-16T12:36:01.827Z,10.60
2022-11-16T12:37:02.138Z,10.67
2022-11-16T12:38:01.822Z,10.67
2022-11-16T12:39:01.818Z,10.82
2022-11-16T12:40:01.930Z,10.64
2022-11-16T12:41:01.811Z,10.48
2022-11-16T12:42:01.819Z,10.66
2022-11-16T12:43:01.808Z,10.40
2022-11-16T12:44:01.800Z,10.34
2022-11-16T12:45:01.807Z,10.30
2022-11-16T12:46:01.797Z,10.27
2022-11-16T12:47:01.793Z,10.33
2022-11-16T12:48:01.789Z,10.42
2022-11-16T12:49:01.797Z,10.45
2022-11-16T12:50:01.807Z,10.53
2022-11-16T12:51:01.794Z,10.45
2022-11-16T12:52:01.780Z,10.41
2022-11-16T12:53:01.778Z,10.53
2022-11-16T12:54:01.774Z,10.60
2022-11-16T12:55:25.250Z,10.59
2022-11-16T12:56:01.791Z,10.60
2022-11-16T12:57:01.772Z,10.60
2022-11-16T12:58:01.766Z,10.56
2022-11-16T12:59:01.763Z,10.61
2022-11-16T13:00:01.767Z,10.66
2022-11-16T13:01:01.801Z,10.60
2022-11-16T13:02:01.752Z,10.67
2022-11-16T13:03:01.754Z,10.79
2022-11-16T13:04:01.743Z,10.63
2022-11-16T13:05:01.747Z,10.74
2022-11-16T13:06:01.742Z,10.73